KAIA/AIA METAR and TAF weather

Enter ICAO airport designator
Station Type Date Time Source
KAIA METAR 2019/04/25 21:53 UTC NOAA

KAIA 252153Z AUTO 05008KT 10SM SCT080 17/02 A3014 RMK AO2 SLP193 T01670017


Station Type Date Time Source
KAIA Decoded METAR 2019/04/25 21:53 UTC NOAA

ALLIANCE MUNICIPAL AIRPORT, NE, United States (KAIA) 42-03N 102-48W 1196M
Apr 25, 2019 - 05:53 PM EDT / 2019.04.25 2153 UTC
Wind: from the NE (050 degrees) at 9 MPH (8 KT):0
Visibility: 10 mile(s):0
Sky conditions: partly cloudy
Temperature: 62.1 F (16.7 C)
Dew Point: 35.1 F (1.7 C)
Relative Humidity: 36%
Pressure (altimeter): 30.14 in. Hg (1020 hPa)
ob: KAIA 252153Z AUTO 05008KT 10SM SCT080 17/02 A3014 RMK AO2 SLP193 T01670017
cycle: 22

Station Type Date Time Source
KAIA TAF 2019/04/25 18:36 UTC NOAA

TAF KAIA 251732Z 2518/2618 36013G20KT P6SM SCT040
FM260100 05006KT P6SM SKC
FM260600 16006KT P6SM SKC

Example: see airport list